»·PEaware :: WAT169 KSNA-KLAS

WAT169 :: KSNA-KLAS

FLIGHT INFORMATION

Flight Status: Arrived
Operator: Unknown
More flights by this operator :: More flights under this callsign
Pilot: Marty P. (27464)
Aircraft: BOEING 737-800
(B738)
More flights by this aircraft type
Origin: KSNA John Wayne-Orange Co
United States
Destination: KLAS McCarran Intl
United States
More flights between these airports :: More routes between these airports
Route: +FINZZ2 MISEN KEPEC6
File this flight plan on PilotEdge
Remarks:
Altitude:
(Current/Filed)
27,000ft
Speed:
(Current/Filed)
470kts
Departed: 17-May-20 08:45 PM
Arrived: 17-May-20 09:32 PM
Distance/Time
Traveled:
197nm/0:47
Distance/Time
To Go:
Arrived

Flight Plot

Page will automatically refresh every two minutes.


Map Options




Map Legend


Flown Route
Filed Route
Departure Airport
Arrival Airport
Navaid (VOR, NDB)
Fix

Horizontal Profiles

Position Reports

Time Latitude Longitude Heading Altitude Ground
Speed
17-May-20 20:26 33.675005 -117.865072 118 66ft 0kts
17-May-20 20:27 33.675005 -117.865072 118 66ft 0kts
17-May-20 20:28 33.675005 -117.865072 118 66ft 0kts
17-May-20 20:29 33.675005 -117.865072 118 66ft 0kts
17-May-20 20:30 33.675005 -117.865072 118 66ft 0kts
17-May-20 20:31 33.675005 -117.865072 118 66ft 0kts
17-May-20 20:32 33.675005 -117.865072 118 66ft 0kts
17-May-20 20:33 33.675005 -117.865072 118 66ft 0kts
17-May-20 20:34 33.675005 -117.865072 118 66ft 0kts
17-May-20 20:35 33.675005 -117.865073 118 66ft 0kts
17-May-20 20:36 33.675057 -117.865189 117 66ft 2kts
17-May-20 20:37 33.675085 -117.865807 52 66ft 2kts
17-May-20 20:38 33.674907 -117.865970 26 66ft 0kts
17-May-20 20:39 33.674920 -117.865962 26 66ft 1kts
17-May-20 20:40 33.678051 -117.863973 27 66ft 18kts
17-May-20 20:41 33.680834 -117.863505 301 66ft 5kts
17-May-20 20:42 33.681136 -117.864166 298 66ft 0kts
17-May-20 20:43 33.681307 -117.865258 209 66ft 0kts
17-May-20 20:44 33.656467 -117.880871 206 936ft 170kts
17-May-20 20:45 33.601251 -117.895492 187 3073ft 241kts
17-May-20 20:46 33.542507 -117.931099 224 6599ft 250kts
17-May-20 20:47 33.505747 -118.002726 267 9499ft 267kts
17-May-20 20:48 33.541819 -118.080583 319 11844ft 322kts
17-May-20 20:49 33.634324 -118.100100 15 14215ft 372kts
17-May-20 20:50 33.731498 -118.047006 24 16697ft 393kts
17-May-20 20:51 33.831933 -117.988391 24 19023ft 409kts
17-May-20 20:52 33.934169 -117.915425 35 20050ft 456kts
17-May-20 20:53 34.037384 -117.823805 38 21983ft 468kts
17-May-20 20:54 34.129520 -117.711051 50 23669ft 479kts
17-May-20 20:55 34.216706 -117.586822 51 25223ft 490kts
17-May-20 20:56 34.303882 -117.458487 51 26617ft 500kts
17-May-20 20:57 34.390989 -117.328326 52 26948ft 512kts
17-May-20 20:58 34.481252 -117.193168 52 26951ft 523kts
17-May-20 20:59 34.573165 -117.055948 51 26930ft 528kts
17-May-20 21:00 34.667072 -116.919241 51 26883ft 531kts
17-May-20 21:01 34.761398 -116.781471 51 26862ft 530kts
17-May-20 21:02 34.853492 -116.653428 45 26865ft 504kts
17-May-20 21:03 34.961815 -116.540978 38 26840ft 505kts
17-May-20 21:04 35.068046 -116.437554 38 24627ft 477kts
17-May-20 21:05 35.160758 -116.329830 46 23808ft 483kts
17-May-20 21:06 35.252442 -116.215778 46 21415ft 460kts
17-May-20 21:07 35.339681 -116.106400 46 19098ft 439kts
17-May-20 21:08 35.424358 -115.999580 46 18150ft 442kts
17-May-20 21:09 35.508185 -115.893529 46 16114ft 432kts
17-May-20 21:10 35.589157 -115.790780 46 13994ft 403kts
17-May-20 21:11 35.659005 -115.701704 47 13206ft 324kts
17-May-20 21:12 35.721782 -115.621140 44 13027ft 329kts
17-May-20 21:13 35.802904 -115.574071 4 13029ft 328kts
17-May-20 21:14 35.894156 -115.567857 0 13022ft 330kts
17-May-20 21:15 35.977062 -115.526646 52 12846ft 330kts
17-May-20 21:17 36.014484 -115.428261 72 11670ft 290kts
17-May-20 21:18 36.028307 -115.334588 99 10670ft 285kts
17-May-20 21:19 36.021294 -115.239102 100 9452ft 268kts
17-May-20 21:20 36.014831 -115.147678 100 8368ft 268kts
17-May-20 21:21 36.008968 -115.059060 100 8014ft 253kts
17-May-20 21:22 36.003846 -114.971822 100 8022ft 253kts
17-May-20 21:23 35.998566 -114.884387 100 8017ft 255kts
17-May-20 21:24 35.993653 -114.801113 96 8043ft 215kts
17-May-20 21:25 36.037484 -114.785681 297 6693ft 202kts
17-May-20 21:26 36.065381 -114.842408 292 5512ft 189kts
17-May-20 21:27 36.073580 -114.903178 263 5513ft 180kts
17-May-20 21:28 36.073622 -114.958959 263 4861ft 153kts
17-May-20 21:29 36.073625 -115.010657 263 4050ft 150kts
17-May-20 21:30 36.073662 -115.061936 264 3243ft 146kts
17-May-20 21:30 36.073656 -115.105296 266 2551ft 152kts
17-May-20 21:32 36.073888 -115.148376 286 2191ft 20kts
17-May-20 21:33 36.076543 -115.152049 334 2191ft 12kts
17-May-20 21:33 36.077997 -115.150479 94 2191ft 18kts
17-May-20 21:35 36.079979 -115.147976 44 2191ft 8kts

Navigation Log

Ident Type
Flight plan parsing failed, navigation log unavailable